sensor_id;sensor_type;location;lat;lon;timestamp;temperature;humidity
25839;DHT22;13669;50.186;27.062;2022-11-23T00:01:29;-1.00;99.90
25839;DHT22;13669;50.186;27.062;2022-11-23T00:03:59;-1.00;99.90
25839;DHT22;13669;50.186;27.062;2022-11-23T00:06:27;-1.00;99.90
25839;DHT22;13669;50.186;27.062;2022-11-23T00:08:55;-0.90;99.90
25839;DHT22;13669;50.186;27.062;2022-11-23T00:11:24;-0.80;99.90
25839;DHT22;13669;50.186;27.062;2022-11-23T00:13:53;-0.90;99.90
25839;DHT22;13669;50.186;27.062;2022-11-23T00:16:24;-0.80;99.90
25839;DHT22;13669;50.186;27.062;2022-11-23T00:19:08;-0.90;99.90
25839;DHT22;13669;50.186;27.062;2022-11-23T00:21:35;-0.90;99.90
25839;DHT22;13669;50.186;27.062;2022-11-23T00:24:03;-1.00;99.90
25839;DHT22;13669;50.186;27.062;2022-11-23T00:26:30;-0.90;99.90
25839;DHT22;13669;50.186;27.062;2022-11-23T00:28:58;-0.90;99.90
25839;DHT22;13669;50.186;27.062;2022-11-23T00:31:26;-0.90;99.90
25839;DHT22;13669;50.186;27.062;2022-11-23T00:33:54;-0.90;99.90
25839;DHT22;13669;50.186;27.062;2022-11-23T00:36:24;-1.00;99.90
25839;DHT22;13669;50.186;27.062;2022-11-23T00:38:52;-1.10;99.90
25839;DHT22;13669;50.186;27.062;2022-11-23T00:41:25;-1.30;99.90
25839;DHT22;13669;50.186;27.062;2022-11-23T00:43:53;-1.20;99.90
25839;DHT22;13669;50.186;27.062;2022-11-23T00:46:23;-1.20;99.90
25839;DHT22;13669;50.186;27.062;2022-11-23T00:48:52;-1.20;99.90
25839;DHT22;13669;50.186;27.062;2022-11-23T00:51:27;-1.20;99.90
25839;DHT22;13669;50.186;27.062;2022-11-23T00:53:56;-1.10;99.90
25839;DHT22;13669;50.186;27.062;2022-11-23T00:56:23;-1.20;99.90
25839;DHT22;13669;50.186;27.062;2022-11-23T00:58:52;-1.10;99.90
25839;DHT22;13669;50.186;27.062;2022-11-23T01:01:22;-1.10;99.90
25839;DHT22;13669;50.186;27.062;2022-11-23T01:03:52;-1.10;99.90
25839;DHT22;13669;50.186;27.062;2022-11-23T01:06:23;-1.20;99.90
25839;DHT22;13669;50.186;27.062;2022-11-23T01:08:56;-1.20;99.90
25839;DHT22;13669;50.186;27.062;2022-11-23T01:11:25;-1.10;99.90
25839;DHT22;13669;50.186;27.062;2022-11-23T01:13:54;-1.00;99.90
25839;DHT22;13669;50.186;27.062;2022-11-23T01:16:27;-1.00;99.90
25839;DHT22;13669;50.186;27.062;2022-11-23T01:19:00;-1.00;99.90
25839;DHT22;13669;50.186;27.062;2022-11-23T01:21:29;-1.10;99.90
25839;DHT22;13669;50.186;27.062;2022-11-23T01:23:57;-1.10;99.90
25839;DHT22;13669;50.186;27.062;2022-11-23T01:26:24;-1.10;99.90
25839;DHT22;13669;50.186;27.062;2022-11-23T01:28:52;-1.00;99.90
25839;DHT22;13669;50.186;27.062;2022-11-23T01:31:21;-1.00;99.90
25839;DHT22;13669;50.186;27.062;2022-11-23T01:33:57;-1.00;99.90
25839;DHT22;13669;50.186;27.062;2022-11-23T01:36:27;-1.10;99.90
25839;DHT22;13669;50.186;27.062;2022-11-23T01:38:56;-1.10;99.90
25839;DHT22;13669;50.186;27.062;2022-11-23T01:41:36;-1.10;99.90
25839;DHT22;13669;50.186;27.062;2022-11-23T01:44:23;-1.10;99.90
25839;DHT22;13669;50.186;27.062;2022-11-23T01:46:52;-1.10;99.90
25839;DHT22;13669;50.186;27.062;2022-11-23T01:49:20;-1.10;99.90
25839;DHT22;13669;50.186;27.062;2022-11-23T01:51:50;-1.20;99.90
25839;DHT22;13669;50.186;27.062;2022-11-23T01:54:30;-1.20;99.90
25839;DHT22;13669;50.186;27.062;2022-11-23T01:57:05;-1.20;99.90
25839;DHT22;13669;50.186;27.062;2022-11-23T01:59:33;-1.20;99.90
25839;DHT22;13669;50.186;27.062;2022-11-23T02:02:02;-1.20;99.90
25839;DHT22;13669;50.186;27.062;2022-11-23T02:04:36;-1.20;99.90
25839;DHT22;13669;50.186;27.062;2022-11-23T02:07:05;-1.10;99.90
25839;DHT22;13669;50.186;27.062;2022-11-23T02:09:34;-1.30;99.90
25839;DHT22;13669;50.186;27.062;2022-11-23T02:12:02;-1.30;99.90
25839;DHT22;13669;50.186;27.062;2022-11-23T02:14:33;-1.40;99.90
25839;DHT22;13669;50.186;27.062;2022-11-23T02:17:00;-1.30;99.90
25839;DHT22;13669;50.186;27.062;2022-11-23T02:22:25;-1.40;99.90
25839;DHT22;13669;50.186;27.062;2022-11-23T02:24:55;-1.40;99.90
25839;DHT22;13669;50.186;27.062;2022-11-23T02:27:23;-1.30;99.90
25839;DHT22;13669;50.186;27.062;2022-11-23T02:29:51;-1.30;99.90
25839;DHT22;13669;50.186;27.062;2022-11-23T02:32:22;-1.30;99.90
25839;DHT22;13669;50.186;27.062;2022-11-23T02:34:50;-1.30;94.60
25839;DHT22;13669;50.186;27.062;2022-11-23T02:37:18;-1.30;88.60
25839;DHT22;13669;50.186;27.062;2022-11-23T02:39:48;-1.40;52.10
25839;DHT22;13669;50.186;27.062;2022-11-23T02:42:17;-1.30;88.10
25839;DHT22;13669;50.186;27.062;2022-11-23T02:47:52;-1.50;99.90
25839;DHT22;13669;50.186;27.062;2022-11-23T02:50:20;-1.40;99.90
25839;DHT22;13669;50.186;27.062;2022-11-23T02:52:47;-1.40;99.90
25839;DHT22;13669;50.186;27.062;2022-11-23T02:55:15;-1.30;93.10
25839;DHT22;13669;50.186;27.062;2022-11-23T02:57:42;-1.70;92.00
25839;DHT22;13669;50.186;27.062;2022-11-23T03:00:11;-1.90;99.00
25839;DHT22;13669;50.186;27.062;2022-11-23T03:02:38;-2.00;99.90
25839;DHT22;13669;50.186;27.062;2022-11-23T03:05:06;-1.80;99.90
25839;DHT22;13669;50.186;27.062;2022-11-23T03:07:34;-1.70;99.90
25839;DHT22;13669;50.186;27.062;2022-11-23T03:10:03;-1.60;99.90
25839;DHT22;13669;50.186;27.062;2022-11-23T03:12:30;-1.60;99.90
25839;DHT22;13669;50.186;27.062;2022-11-23T03:14:58;-1.70;99.90
25839;DHT22;13669;50.186;27.062;2022-11-23T03:17:25;-1.70;99.90
25839;DHT22;13669;50.186;27.062;2022-11-23T03:19:54;-1.70;99.90
25839;DHT22;13669;50.186;27.062;2022-11-23T03:22:21;-1.70;99.90
25839;DHT22;13669;50.186;27.062;2022-11-23T03:24:49;-1.60;99.90
25839;DHT22;13669;50.186;27.062;2022-11-23T03:27:17;-1.70;99.90
25839;DHT22;13669;50.186;27.062;2022-11-23T03:29:44;-1.70;99.90
25839;DHT22;13669;50.186;27.062;2022-11-23T03:32:12;-1.70;99.90
25839;DHT22;13669;50.186;27.062;2022-11-23T03:34:39;-1.70;99.90
25839;DHT22;13669;50.186;27.062;2022-11-23T03:37:07;-1.70;99.90
25839;DHT22;13669;50.186;27.062;2022-11-23T03:39:34;-1.60;99.90
25839;DHT22;13669;50.186;27.062;2022-11-23T03:42:02;-1.60;99.90
25839;DHT22;13669;50.186;27.062;2022-11-23T03:44:29;-1.60;99.90
25839;DHT22;13669;50.186;27.062;2022-11-23T03:46:57;-1.60;99.90
25839;DHT22;13669;50.186;27.062;2022-11-23T03:49:25;-1.60;99.90
25839;DHT22;13669;50.186;27.062;2022-11-23T03:51:53;-1.60;99.90
25839;DHT22;13669;50.186;27.062;2022-11-23T03:54:20;-1.80;99.90
25839;DHT22;13669;50.186;27.062;2022-11-23T03:56:47;-1.70;99.90
25839;DHT22;13669;50.186;27.062;2022-11-23T03:59:15;-1.70;99.90
25839;DHT22;13669;50.186;27.062;2022-11-23T04:01:42;-1.70;99.90
25839;DHT22;13669;50.186;27.062;2022-11-23T04:04:10;-1.80;99.90
25839;DHT22;13669;50.186;27.062;2022-11-23T04:06:37;-1.90;99.90
25839;DHT22;13669;50.186;27.062;2022-11-23T04:09:04;-1.90;99.90
25839;DHT22;13669;50.186;27.062;2022-11-23T04:11:32;-1.90;99.90
25839;DHT22;13669;50.186;27.062;2022-11-23T04:13:59;-1.80;99.90
25839;DHT22;13669;50.186;27.062;2022-11-23T04:16:27;-1.80;99.90
25839;DHT22;13669;50.186;27.062;2022-11-23T04:18:54;-1.80;99.90
25839;DHT22;13669;50.186;27.062;2022-11-23T04:21:21;-1.90;99.90
25839;DHT22;13669;50.186;27.062;2022-11-23T04:23:49;-1.80;99.90
25839;DHT22;13669;50.186;27.062;2022-11-23T04:26:17;-1.90;99.90
25839;DHT22;13669;50.186;27.062;2022-11-23T04:28:44;-1.90;99.90
25839;DHT22;13669;50.186;27.062;2022-11-23T04:31:11;-1.90;99.90
25839;DHT22;13669;50.186;27.062;2022-11-23T04:33:39;-2.00;99.90
25839;DHT22;13669;50.186;27.062;2022-11-23T04:36:07;-2.00;99.90
25839;DHT22;13669;50.186;27.062;2022-11-23T04:38:34;-2.00;99.90
25839;DHT22;13669;50.186;27.062;2022-11-23T04:41:02;-2.00;99.90
25839;DHT22;13669;50.186;27.062;2022-11-23T04:43:29;-1.90;99.90
25839;DHT22;13669;50.186;27.062;2022-11-23T04:45:58;-1.80;99.90
25839;DHT22;13669;50.186;27.062;2022-11-23T04:48:26;-1.70;99.90
25839;DHT22;13669;50.186;27.062;2022-11-23T04:50:53;-1.70;99.90
25839;DHT22;13669;50.186;27.062;2022-11-23T04:53:22;-1.80;99.90
25839;DHT22;13669;50.186;27.062;2022-11-23T04:55:49;-2.00;99.90
25839;DHT22;13669;50.186;27.062;2022-11-23T04:58:17;-1.90;99.90
25839;DHT22;13669;50.186;27.062;2022-11-23T05:00:44;-1.90;99.90
25839;DHT22;13669;50.186;27.062;2022-11-23T05:03:12;-2.00;99.90
25839;DHT22;13669;50.186;27.062;2022-11-23T05:05:40;-2.00;99.90
25839;DHT22;13669;50.186;27.062;2022-11-23T05:08:08;-1.90;99.90
25839;DHT22;13669;50.186;27.062;2022-11-23T05:10:36;-1.80;99.90
25839;DHT22;13669;50.186;27.062;2022-11-23T05:13:03;-1.70;99.90
25839;DHT22;13669;50.186;27.062;2022-11-23T05:15:31;-1.70;99.90
25839;DHT22;13669;50.186;27.062;2022-11-23T05:18:03;-1.70;99.90
25839;DHT22;13669;50.186;27.062;2022-11-23T05:20:33;-1.60;99.90
25839;DHT22;13669;50.186;27.062;2022-11-23T05:23:00;-1.60;99.90
25839;DHT22;13669;50.186;27.062;2022-11-23T05:25:28;-1.60;99.90
25839;DHT22;13669;50.186;27.062;2022-11-23T05:27:56;-1.50;99.90
25839;DHT22;13669;50.186;27.062;2022-11-23T05:30:30;-1.50;99.90
25839;DHT22;13669;50.186;27.062;2022-11-23T05:33:02;-1.60;99.90
25839;DHT22;13669;50.186;27.062;2022-11-23T05:35:30;-1.60;99.90
25839;DHT22;13669;50.186;27.062;2022-11-23T05:37:57;-1.60;99.90
25839;DHT22;13669;50.186;27.062;2022-11-23T05:40:25;-1.50;99.90
25839;DHT22;13669;50.186;27.062;2022-11-23T05:42:54;-1.50;99.90
25839;DHT22;13669;50.186;27.062;2022-11-23T05:45:22;-1.50;99.90
25839;DHT22;13669;50.186;27.062;2022-11-23T05:47:51;-1.50;99.90
25839;DHT22;13669;50.186;27.062;2022-11-23T05:50:20;-1.50;99.90
25839;DHT22;13669;50.186;27.062;2022-11-23T05:52:48;-1.50;99.90
25839;DHT22;13669;50.186;27.062;2022-11-23T05:55:15;-1.50;99.90
25839;DHT22;13669;50.186;27.062;2022-11-23T05:57:43;-1.50;99.90
25839;DHT22;13669;50.186;27.062;2022-11-23T06:00:11;-1.50;99.90
25839;DHT22;13669;50.186;27.062;2022-11-23T06:02:38;-1.60;99.90
25839;DHT22;13669;50.186;27.062;2022-11-23T06:05:08;-1.60;99.90
25839;DHT22;13669;50.186;27.062;2022-11-23T06:07:36;-1.70;99.90
25839;DHT22;13669;50.186;27.062;2022-11-23T06:10:04;-1.60;99.90
25839;DHT22;13669;50.186;27.062;2022-11-23T06:12:32;-1.60;99.90
25839;DHT22;13669;50.186;27.062;2022-11-23T06:15:00;-1.60;99.90
25839;DHT22;13669;50.186;27.062;2022-11-23T06:17:27;-1.60;99.90
25839;DHT22;13669;50.186;27.062;2022-11-23T06:19:55;-1.60;99.90
25839;DHT22;13669;50.186;27.062;2022-11-23T06:22:22;-1.60;99.90
25839;DHT22;13669;50.186;27.062;2022-11-23T06:24:50;-1.60;99.90
25839;DHT22;13669;50.186;27.062;2022-11-23T06:27:17;-1.70;99.90
25839;DHT22;13669;50.186;27.062;2022-11-23T06:29:44;-1.50;99.90
25839;DHT22;13669;50.186;27.062;2022-11-23T06:32:13;-1.50;99.90
25839;DHT22;13669;50.186;27.062;2022-11-23T06:34:41;-1.50;99.90
25839;DHT22;13669;50.186;27.062;2022-11-23T06:37:09;-1.50;99.90
25839;DHT22;13669;50.186;27.062;2022-11-23T06:39:36;-1.50;99.90
25839;DHT22;13669;50.186;27.062;2022-11-23T06:42:04;-1.60;99.90
25839;DHT22;13669;50.186;27.062;2022-11-23T06:44:51;-1.70;99.90
25839;DHT22;13669;50.186;27.062;2022-11-23T06:47:18;-1.60;99.90
25839;DHT22;13669;50.186;27.062;2022-11-23T06:49:52;-1.60;99.90
25839;DHT22;13669;50.186;27.062;2022-11-23T06:52:19;-1.60;99.90
25839;DHT22;13669;50.186;27.062;2022-11-23T06:54:47;-1.50;99.90
25839;DHT22;13669;50.186;27.062;2022-11-23T06:57:14;-1.60;99.90
25839;DHT22;13669;50.186;27.062;2022-11-23T06:59:41;-1.50;99.90
25839;DHT22;13669;50.186;27.062;2022-11-23T07:02:12;-1.40;99.90
25839;DHT22;13669;50.186;27.062;2022-11-23T07:04:40;-1.40;90.90
25839;DHT22;13669;50.186;27.062;2022-11-23T07:07:08;-1.40;84.90
25839;DHT22;13669;50.186;27.062;2022-11-23T07:09:36;-1.30;94.90
25839;DHT22;13669;50.186;27.062;2022-11-23T07:12:04;-1.30;79.20
25839;DHT22;13669;50.186;27.062;2022-11-23T07:14:32;-1.30;26.20
25839;DHT22;13669;50.186;27.062;2022-11-23T07:16:59;-1.30;10.70
25839;DHT22;13669;50.186;27.062;2022-11-23T07:19:27;-1.30;1.00
25839;DHT22;13669;50.186;27.062;2022-11-23T07:21:54;-1.30;21.30
25839;DHT22;13669;50.186;27.062;2022-11-23T07:24:21;-1.30;1.00
25839;DHT22;13669;50.186;27.062;2022-11-23T07:26:49;-1.50;1.00
25839;DHT22;13669;50.186;27.062;2022-11-23T07:29:16;-1.50;31.30
25839;DHT22;13669;50.186;27.062;2022-11-23T07:31:44;-1.40;19.20
25839;DHT22;13669;50.186;27.062;2022-11-23T07:34:11;-1.20;23.20
25839;DHT22;13669;50.186;27.062;2022-11-23T07:36:38;-1.20;1.00
25839;DHT22;13669;50.186;27.062;2022-11-23T07:39:06;-1.00;1.00
25839;DHT22;13669;50.186;27.062;2022-11-23T07:41:33;-1.10;1.00
25839;DHT22;13669;50.186;27.062;2022-11-23T07:44:01;-1.10;1.00
25839;DHT22;13669;50.186;27.062;2022-11-23T07:46:28;-1.10;1.00
25839;DHT22;13669;50.186;27.062;2022-11-23T07:48:56;-1.10;1.00
25839;DHT22;13669;50.186;27.062;2022-11-23T07:51:28;-1.00;1.00
25839;DHT22;13669;50.186;27.062;2022-11-23T07:53:56;-1.00;1.00
25839;DHT22;13669;50.186;27.062;2022-11-23T07:56:23;-1.00;1.00
25839;DHT22;13669;50.186;27.062;2022-11-23T07:58:51;-0.90;99.90
25839;DHT22;13669;50.186;27.062;2022-11-23T08:01:18;-1.00;99.90
25839;DHT22;13669;50.186;27.062;2022-11-23T08:03:47;-1.00;99.90
25839;DHT22;13669;50.186;27.062;2022-11-23T08:06:16;-1.00;99.90
25839;DHT22;13669;50.186;27.062;2022-11-23T08:08:43;-1.20;99.90
25839;DHT22;13669;50.186;27.062;2022-11-23T08:11:11;-1.20;99.90
25839;DHT22;13669;50.186;27.062;2022-11-23T08:13:40;-1.10;99.90
25839;DHT22;13669;50.186;27.062;2022-11-23T08:16:08;-1.20;1.00
25839;DHT22;13669;50.186;27.062;2022-11-23T08:18:36;-1.10;1.00
25839;DHT22;13669;50.186;27.062;2022-11-23T08:21:03;-0.90;1.00
25839;DHT22;13669;50.186;27.062;2022-11-23T08:23:31;-0.80;1.00
25839;DHT22;13669;50.186;27.062;2022-11-23T08:26:02;-0.60;1.00
25839;DHT22;13669;50.186;27.062;2022-11-23T08:28:35;-0.50;99.90
25839;DHT22;13669;50.186;27.062;2022-11-23T08:31:08;-0.40;99.90
25839;DHT22;13669;50.186;27.062;2022-11-23T08:33:41;-0.50;99.90
25839;DHT22;13669;50.186;27.062;2022-11-23T08:36:08;-0.50;1.00
25839;DHT22;13669;50.186;27.062;2022-11-23T08:38:36;-0.80;87.60
25839;DHT22;13669;50.186;27.062;2022-11-23T08:41:03;-0.70;99.90
25839;DHT22;13669;50.186;27.062;2022-11-23T08:43:32;-0.50;99.90
25839;DHT22;13669;50.186;27.062;2022-11-23T08:46:00;-0.40;30.40
25839;DHT22;13669;50.186;27.062;2022-11-23T08:48:35;-0.40;1.00
25839;DHT22;13669;50.186;27.062;2022-11-23T08:51:02;-0.20;1.00
25839;DHT22;13669;50.186;27.062;2022-11-23T08:53:30;-0.30;99.90
25839;DHT22;13669;50.186;27.062;2022-11-23T08:56:02;-0.50;99.90
25839;DHT22;13669;50.186;27.062;2022-11-23T08:58:30;-0.50;1.00
25839;DHT22;13669;50.186;27.062;2022-11-23T09:00:57;-0.40;1.00
25839;DHT22;13669;50.186;27.062;2022-11-23T09:03:24;-0.30;99.90
25839;DHT22;13669;50.186;27.062;2022-11-23T09:05:52;-0.20;99.90
25839;DHT22;13669;50.186;27.062;2022-11-23T09:08:20;-0.20;99.90
25839;DHT22;13669;50.186;27.062;2022-11-23T09:10:48;-0.30;99.90
25839;DHT22;13669;50.186;27.062;2022-11-23T09:13:15;-0.30;99.90
25839;DHT22;13669;50.186;27.062;2022-11-23T09:15:42;-0.30;99.90
25839;DHT22;13669;50.186;27.062;2022-11-23T09:18:10;-0.30;1.00
25839;DHT22;13669;50.186;27.062;2022-11-23T09:20:40;-0.30;1.00
25839;DHT22;13669;50.186;27.062;2022-11-23T09:23:08;-0.40;99.90
25839;DHT22;13669;50.186;27.062;2022-11-23T09:25:40;-0.40;99.90
25839;DHT22;13669;50.186;27.062;2022-11-23T09:28:09;-0.30;99.90
25839;DHT22;13669;50.186;27.062;2022-11-23T09:30:38;-0.20;99.90
25839;DHT22;13669;50.186;27.062;2022-11-23T09:33:06;-0.10;1.00
25839;DHT22;13669;50.186;27.062;2022-11-23T09:35:34;0.00;99.90
25839;DHT22;13669;50.186;27.062;2022-11-23T09:38:09;0.10;7.20
25839;DHT22;13669;50.186;27.062;2022-11-23T09:40:38;0.20;1.00
25839;DHT22;13669;50.186;27.062;2022-11-23T09:43:34;0.20;1.00
25839;DHT22;13669;50.186;27.062;2022-11-23T09:46:28;0.20;1.00
25839;DHT22;13669;50.186;27.062;2022-11-23T09:49:07;-0.20;99.90
25839;DHT22;13669;50.186;27.062;2022-11-23T09:51:37;-0.20;13.30
25839;DHT22;13669;50.186;27.062;2022-11-23T09:54:18;-0.30;99.90
25839;DHT22;13669;50.186;27.062;2022-11-23T09:56:50;-0.40;99.90
25839;DHT22;13669;50.186;27.062;2022-11-23T09:59:40;-0.10;99.90
25839;DHT22;13669;50.186;27.062;2022-11-23T10:02:21;-0.20;99.90
25839;DHT22;13669;50.186;27.062;2022-11-23T10:04:51;-0.30;34.30
25839;DHT22;13669;50.186;27.062;2022-11-23T10:15:18;0.20;99.90
25839;DHT22;13669;50.186;27.062;2022-11-23T10:23:30;0.40;1.00
25839;DHT22;13669;50.186;27.062;2022-11-23T10:26:00;0.60;99.90
25839;DHT22;13669;50.186;27.062;2022-11-23T10:28:29;0.50;1.00
25839;DHT22;13669;50.186;27.062;2022-11-23T10:31:14;0.30;99.90
25839;DHT22;13669;50.186;27.062;2022-11-23T10:34:03;0.30;1.00
25839;DHT22;13669;50.186;27.062;2022-11-23T10:36:35;-0.10;9.80
25839;DHT22;13669;50.186;27.062;2022-11-23T10:39:23;-0.20;99.90
25839;DHT22;13669;50.186;27.062;2022-11-23T10:41:51;-0.30;99.90
25839;DHT22;13669;50.186;27.062;2022-11-23T10:46:52;-0.30;99.90
25839;DHT22;13669;50.186;27.062;2022-11-23T10:52:08;-0.10;99.90
25839;DHT22;13669;50.186;27.062;2022-11-23T10:54:53;-0.20;99.90
25839;DHT22;13669;50.186;27.062;2022-11-23T11:00:03;0.00;99.90
25839;DHT22;13669;50.186;27.062;2022-11-23T11:05:27;0.30;99.90
25839;DHT22;13669;50.186;27.062;2022-11-23T11:08:17;0.40;1.00
25839;DHT22;13669;50.186;27.062;2022-11-23T11:10:57;0.40;99.90
25839;DHT22;13669;50.186;27.062;2022-11-23T11:13:28;0.40;1.00
25839;DHT22;13669;50.186;27.062;2022-11-23T11:15:58;0.30;1.00
25839;DHT22;13669;50.186;27.062;2022-11-23T11:18:34;0.40;1.00
25839;DHT22;13669;50.186;27.062;2022-11-23T11:21:16;0.50;1.00
25839;DHT22;13669;50.186;27.062;2022-11-23T11:23:54;0.50;99.90
25839;DHT22;13669;50.186;27.062;2022-11-23T11:26:26;0.50;99.90
25839;DHT22;13669;50.186;27.062;2022-11-23T11:28:59;0.60;1.00
25839;DHT22;13669;50.186;27.062;2022-11-23T11:42:29;0.50;1.00
25839;DHT22;13669;50.186;27.062;2022-11-23T11:45:02;0.50;1.00
25839;DHT22;13669;50.186;27.062;2022-11-23T11:47:36;0.50;1.00
25839;DHT22;13669;50.186;27.062;2022-11-23T11:50:23;0.50;1.00
25839;DHT22;13669;50.186;27.062;2022-11-23T11:53:09;0.50;99.90
25839;DHT22;13669;50.186;27.062;2022-11-23T11:55:52;0.60;99.90
25839;DHT22;13669;50.186;27.062;2022-11-23T11:58:23;0.60;99.90
25839;DHT22;13669;50.186;27.062;2022-11-23T12:01:15;0.70;99.90
25839;DHT22;13669;50.186;27.062;2022-11-23T12:03:56;0.80;99.90
25839;DHT22;13669;50.186;27.062;2022-11-23T12:07:13;0.80;99.90
25839;DHT22;13669;50.186;27.062;2022-11-23T12:09:45;0.90;99.90
25839;DHT22;13669;50.186;27.062;2022-11-23T12:12:20;1.00;99.90
25839;DHT22;13669;50.186;27.062;2022-11-23T12:15:23;0.90;99.90
25839;DHT22;13669;50.186;27.062;2022-11-23T12:21:22;0.90;99.90
25839;DHT22;13669;50.186;27.062;2022-11-23T12:24:18;0.90;99.90
25839;DHT22;13669;50.186;27.062;2022-11-23T12:26:51;0.80;1.00
25839;DHT22;13669;50.186;27.062;2022-11-23T12:40:22;0.60;99.90
25839;DHT22;13669;50.186;27.062;2022-11-23T12:43:00;0.50;99.90
25839;DHT22;13669;50.186;27.062;2022-11-23T12:45:49;0.40;99.90
25839;DHT22;13669;50.186;27.062;2022-11-23T12:53:50;0.40;1.00
25839;DHT22;13669;50.186;27.062;2022-11-23T12:59:10;0.30;1.00
25839;DHT22;13669;50.186;27.062;2022-11-23T13:01:41;0.40;99.90
25839;DHT22;13669;50.186;27.062;2022-11-23T13:04:42;0.30;99.90
25839;DHT22;13669;50.186;27.062;2022-11-23T13:07:22;0.40;99.90
25839;DHT22;13669;50.186;27.062;2022-11-23T13:13:04;0.30;99.90
25839;DHT22;13669;50.186;27.062;2022-11-23T13:21:40;0.20;1.00
25839;DHT22;13669;50.186;27.062;2022-11-23T13:24:28;0.20;1.00
25839;DHT22;13669;50.186;27.062;2022-11-23T13:30:21;0.20;1.00
25839;DHT22;13669;50.186;27.062;2022-11-23T13:32:56;0.20;1.00
25839;DHT22;13669;50.186;27.062;2022-11-23T13:40:34;0.10;1.00
25839;DHT22;13669;50.186;27.062;2022-11-23T13:43:18;0.10;1.00
25839;DHT22;13669;50.186;27.062;2022-11-23T13:48:50;0.10;1.00
25839;DHT22;13669;50.186;27.062;2022-11-23T13:51:33;0.10;1.00
25839;DHT22;13669;50.186;27.062;2022-11-23T13:54:17;0.10;6.90
25839;DHT22;13669;50.186;27.062;2022-11-23T13:57:00;0.10;10.40
25839;DHT22;13669;50.186;27.062;2022-11-23T13:59:30;0.10;14.10
25839;DHT22;13669;50.186;27.062;2022-11-23T14:04:37;0.00;49.50
25839;DHT22;13669;50.186;27.062;2022-11-23T14:07:18;0.10;74.20
25839;DHT22;13669;50.186;27.062;2022-11-23T14:10:05;0.10;91.10
25839;DHT22;13669;50.186;27.062;2022-11-23T14:12:46;0.20;92.80
25839;DHT22;13669;50.186;27.062;2022-11-23T14:15:21;0.20;79.40
25839;DHT22;13669;50.186;27.062;2022-11-23T14:42:29;0.20;99.90
25839;DHT22;13669;50.186;27.062;2022-11-23T14:45:02;0.20;99.90
25839;DHT22;13669;50.186;27.062;2022-11-23T14:47:31;0.20;99.90
25839;DHT22;13669;50.186;27.062;2022-11-23T14:50:00;0.20;99.90
25839;DHT22;13669;50.186;27.062;2022-11-23T14:52:32;0.10;99.90
25839;DHT22;13669;50.186;27.062;2022-11-23T14:55:04;0.20;99.90
25839;DHT22;13669;50.186;27.062;2022-11-23T14:57:42;0.20;99.90
25839;DHT22;13669;50.186;27.062;2022-11-23T15:00:38;0.20;99.90
25839;DHT22;13669;50.186;27.062;2022-11-23T15:03:12;0.20;99.90
25839;DHT22;13669;50.186;27.062;2022-11-23T15:06:13;0.20;99.90
25839;DHT22;13669;50.186;27.062;2022-11-23T15:08:46;0.20;99.90
